Time;durP1;ratioP1;P1;durP2;ratioP2;P2;SDS_P1;SDS_P2;PMS_P1;PMS_P2;Temp;Humidity;BMP_temperature;BMP_pressure;BME280_temperature;BME280_humidity;BME280_pressure;Samples;Min_cycle;Max_cycle;Signal;HPM_P1;HPM_P2
2022/04/10 00:00:39;;;;;;;2.08;1.17;;;2.20;99.90;;;;;;5082135;28;20020;-63
2022/04/10 00:03:05;;;;;;;2.65;1.38;;;2.20;99.90;;;;;;5075333;28;20111;-63
2022/04/10 00:05:30;;;;;;;2.90;1.75;;;2.20;99.90;;;;;;5081140;28;20106;-62
2022/04/10 00:07:56;;;;;;;6.35;1.42;;;2.10;99.90;;;;;;5077217;28;20484;-62
2022/04/10 00:10:22;;;;;;;0.95;0.82;;;2.10;99.90;;;;;;5074009;28;20857;-62
2022/04/10 00:12:47;;;;;;;4.25;2.15;;;2.00;99.90;;;;;;5084545;28;20025;-61
2022/04/10 00:15:14;;;;;;;7.07;2.50;;;2.10;99.90;;;;;;5069800;28;20062;-62
2022/04/10 00:17:41;;;;;;;2.30;1.48;;;2.20;99.90;;;;;;5071862;28;20020;-62
2022/04/10 00:20:07;;;;;;;4.65;1.90;;;2.10;99.90;;;;;;5078784;28;20074;-62
2022/04/10 00:22:43;;;;;;;6.18;1.80;;;2.10;99.90;;;;;;5078317;28;20035;-62
2022/04/10 00:25:14;;;;;;;6.47;1.50;;;2.20;99.90;;;;;;5081779;28;20395;-62
2022/04/10 00:27:41;;;;;;;4.70;2.40;;;2.20;99.90;;;;;;5076402;28;20040;-62
2022/04/10 00:30:08;;;;;;;1.42;1.10;;;2.20;99.90;;;;;;5080360;28;20098;-62
2022/04/10 00:32:33;;;;;;;2.67;1.58;;;2.20;99.90;;;;;;5060536;28;20614;-62
2022/04/10 00:34:59;;;;;;;1.65;1.13;;;2.20;99.90;;;;;;5083203;28;20099;-62
2022/04/10 00:37:25;;;;;;;2.45;1.35;;;2.10;99.90;;;;;;5075880;28;20079;-62
2022/04/10 00:39:51;;;;;;;4.05;1.83;;;2.10;99.90;;;;;;5070416;28;20020;-62
2022/04/10 00:42:17;;;;;;;1.98;1.15;;;2.20;99.90;;;;;;5085026;28;20055;-62
2022/04/10 00:44:42;;;;;;;2.92;1.17;;;2.10;99.90;;;;;;5078730;28;20025;-61
2022/04/10 00:47:10;;;;;;;1.88;1.33;;;2.20;99.90;;;;;;5084648;28;20024;-62
2022/04/10 00:49:36;;;;;;;4.43;1.73;;;2.30;99.90;;;;;;5080714;28;20073;-61
2022/04/10 00:52:04;;;;;;;8.52;2.00;;;2.20;99.90;;;;;;5079248;28;20020;-61
2022/04/10 00:54:30;;;;;;;2.35;1.45;;;2.10;99.90;;;;;;5080477;28;20024;-62
2022/04/10 00:56:57;;;;;;;4.68;1.65;;;2.20;99.90;;;;;;5066760;28;20024;-62
2022/04/10 00:59:23;;;;;;;1.00;0.90;;;2.20;99.90;;;;;;5062144;28;20017;-63
2022/04/10 01:01:49;;;;;;;2.72;1.63;;;2.30;99.90;;;;;;5083537;28;20468;-61
2022/04/10 01:04:15;;;;;;;2.60;1.75;;;2.30;99.90;;;;;;5079123;28;20051;-62
2022/04/10 01:06:42;;;;;;;5.15;1.10;;;2.30;99.90;;;;;;5064279;28;20070;-64
2022/04/10 01:09:08;;;;;;;26.15;2.03;;;2.40;99.90;;;;;;5080611;28;20475;-64
2022/04/10 01:11:35;;;;;;;3.03;1.55;;;2.40;99.90;;;;;;5080987;28;20049;-64
2022/04/10 01:14:04;;;;;;;4.07;2.00;;;2.40;99.90;;;;;;5085538;28;20016;-64
2022/04/10 01:16:30;;;;;;;7.63;3.05;;;2.50;99.90;;;;;;5077800;28;20016;-64
2022/04/10 01:18:57;;;;;;;2.35;1.42;;;2.40;99.90;;;;;;5081181;28;20016;-64
2022/04/10 01:21:25;;;;;;;2.08;1.33;;;2.30;99.90;;;;;;5076527;28;20031;-64
2022/04/10 01:23:52;;;;;;;3.55;1.95;;;2.30;99.90;;;;;;5085548;28;20020;-65
2022/04/10 01:26:18;;;;;;;2.42;1.65;;;2.20;99.90;;;;;;5083676;28;20044;-65
2022/04/10 01:29:04;;;;;;;1.60;1.10;;;2.30;99.90;;;;;;5081459;28;20082;-65
2022/04/10 01:31:32;;;;;;;4.43;1.77;;;2.20;99.90;;;;;;5082434;28;20043;-65
2022/04/10 01:34:02;;;;;;;2.97;1.80;;;2.20;99.90;;;;;;5075834;28;20037;-65
2022/04/10 01:36:30;;;;;;;2.10;1.30;;;2.20;99.90;;;;;;5079617;28;20032;-65
2022/04/10 01:38:57;;;;;;;10.48;2.85;;;2.10;99.90;;;;;;5081668;28;20025;-65
2022/04/10 01:41:27;;;;;;;3.75;2.08;;;2.10;99.90;;;;;;5081339;28;20036;-65
2022/04/10 01:43:54;;;;;;;2.03;1.55;;;2.00;99.90;;;;;;5085780;28;20078;-65
2022/04/10 01:46:21;;;;;;;2.30;1.30;;;2.00;99.90;;;;;;5067214;28;20173;-65
2022/04/10 01:48:47;;;;;;;9.50;2.35;;;2.10;99.90;;;;;;5080871;28;20026;-64
2022/04/10 01:51:14;;;;;;;1.95;1.30;;;2.00;99.90;;;;;;5079803;28;20036;-64
2022/04/10 01:53:39;;;;;;;19.20;2.90;;;2.00;99.90;;;;;;5082972;28;20036;-64
2022/04/10 01:56:07;;;;;;;4.80;2.20;;;2.00;99.90;;;;;;5080323;28;20345;-64
2022/04/10 01:58:35;;;;;;;1.67;1.20;;;2.10;99.90;;;;;;5079601;28;20039;-64
2022/04/10 02:01:05;;;;;;;3.95;1.17;;;2.10;99.90;;;;;;5082533;28;20482;-64
2022/04/10 02:03:31;;;;;;;9.48;2.05;;;2.10;99.90;;;;;;5078530;28;20027;-64
2022/04/10 02:05:57;;;;;;;10.65;3.05;;;2.10;99.90;;;;;;5078756;28;20119;-64
2022/04/10 02:08:23;;;;;;;1.10;1.00;;;2.10;99.90;;;;;;5081264;28;20442;-64
2022/04/10 02:10:49;;;;;;;14.45;2.30;;;2.10;99.90;;;;;;5081620;28;20029;-64
2022/04/10 02:13:15;;;;;;;4.47;1.98;;;2.00;99.90;;;;;;5087562;28;20070;-64
2022/04/10 02:15:40;;;;;;;7.20;3.75;;;2.00;99.90;;;;;;5085887;28;20028;-64
2022/04/10 02:18:07;;;;;;;17.63;1.63;;;1.90;99.90;;;;;;5083549;28;20495;-64
2022/04/10 02:20:33;;;;;;;4.30;2.28;;;2.00;99.90;;;;;;5079691;28;20019;-64
2022/04/10 02:22:59;;;;;;;2.75;2.00;;;1.90;99.90;;;;;;5079335;28;20032;-64
2022/04/10 02:25:25;;;;;;;9.30;3.13;;;1.90;99.90;;;;;;5091416;28;20034;-64
2022/04/10 02:27:51;;;;;;;3.95;1.85;;;1.90;99.90;;;;;;5080980;28;20060;-64
2022/04/10 02:30:18;;;;;;;3.47;1.60;;;1.80;99.90;;;;;;5080843;28;20032;-64
2022/04/10 02:32:44;;;;;;;5.22;2.67;;;1.80;99.90;;;;;;5067128;28;20111;-64
2022/04/10 02:35:10;;;;;;;5.40;2.60;;;1.70;99.90;;;;;;5081507;28;20024;-65
2022/04/10 02:37:36;;;;;;;3.80;1.45;;;1.70;99.90;;;;;;5084200;28;20477;-65
2022/04/10 02:40:03;;;;;;;4.22;1.67;;;1.70;99.90;;;;;;5084634;28;20104;-65
2022/04/10 02:42:29;;;;;;;11.52;2.15;;;1.70;99.90;;;;;;5081941;28;20058;-65
2022/04/10 02:44:55;;;;;;;1.65;1.23;;;1.70;99.90;;;;;;5079599;28;20562;-65
2022/04/10 02:47:20;;;;;;;2.30;1.40;;;1.80;99.90;;;;;;5083007;28;20085;-65
2022/04/10 02:49:47;;;;;;;4.10;2.08;;;1.70;99.90;;;;;;5081873;28;20029;-65
2022/04/10 02:52:12;;;;;;;2.50;1.48;;;1.70;99.90;;;;;;5069704;28;20032;-65
2022/04/10 02:54:38;;;;;;;1.00;0.90;;;1.70;99.90;;;;;;5081640;28;20099;-65
2022/04/10 02:57:04;;;;;;;6.50;2.97;;;1.70;99.90;;;;;;5084801;28;20154;-65
2022/04/10 02:59:29;;;;;;;1.75;1.23;;;1.70;99.90;;;;;;5082805;28;20040;-65
2022/04/10 03:01:55;;;;;;;4.70;2.40;;;1.60;99.90;;;;;;5080442;28;20570;-65
2022/04/10 03:04:20;;;;;;;6.00;1.80;;;1.70;99.90;;;;;;5082619;28;20035;-65
2022/04/10 03:06:46;;;;;;;7.15;2.15;;;1.80;99.90;;;;;;5079620;28;20046;-65
2022/04/10 03:09:12;;;;;;;3.90;2.15;;;1.70;99.90;;;;;;5063548;28;20451;-65
2022/04/10 03:11:40;;;;;;;4.20;1.50;;;1.70;99.90;;;;;;5085953;28;20119;-65
2022/04/10 03:14:06;;;;;;;1.00;0.90;;;1.70;99.90;;;;;;5086176;28;20024;-65
2022/04/10 03:16:31;;;;;;;4.50;1.70;;;1.70;99.90;;;;;;5086118;28;20032;-64
2022/04/10 03:18:57;;;;;;;2.55;1.45;;;1.60;99.90;;;;;;5079878;28;20515;-65
2022/04/10 03:21:22;;;;;;;7.72;1.75;;;1.60;99.90;;;;;;5086211;28;20020;-64
2022/04/10 03:23:48;;;;;;;2.15;1.23;;;1.60;99.90;;;;;;5075161;28;20468;-64
2022/04/10 03:26:13;;;;;;;2.70;1.70;;;1.60;99.90;;;;;;5083476;28;20059;-64
2022/04/10 03:28:39;;;;;;;4.40;1.65;;;1.80;99.90;;;;;;5079518;28;20048;-65
2022/04/10 03:31:05;;;;;;;2.67;1.27;;;1.80;99.90;;;;;;5080328;28;20044;-64
2022/04/10 03:33:30;;;;;;;4.82;1.90;;;1.80;99.90;;;;;;5081540;28;20036;-64
2022/04/10 03:35:56;;;;;;;5.55;1.98;;;1.80;99.90;;;;;;5079068;28;20032;-64
2022/04/10 03:38:22;;;;;;;4.57;1.80;;;1.70;99.90;;;;;;5078145;28;20062;-65
2022/04/10 03:40:48;;;;;;;1.90;1.10;;;1.70;99.90;;;;;;5064967;28;20043;-65
2022/04/10 03:43:14;;;;;;;2.78;1.23;;;1.60;99.90;;;;;;5081585;28;20028;-65
2022/04/10 03:45:40;;;;;;;3.92;1.48;;;1.50;99.90;;;;;;5080289;28;20028;-65
2022/04/10 03:48:06;;;;;;;4.55;1.92;;;1.50;99.90;;;;;;5086825;28;20024;-65
2022/04/10 03:50:33;;;;;;;5.70;2.63;;;1.50;99.90;;;;;;5085231;28;20051;-65
2022/04/10 03:53:00;;;;;;;13.50;2.35;;;1.50;99.90;;;;;;5080595;28;20078;-65
2022/04/10 03:55:26;;;;;;;4.57;1.75;;;1.50;99.90;;;;;;5073093;28;20028;-65
2022/04/10 03:57:52;;;;;;;2.67;1.58;;;1.50;99.90;;;;;;5076451;28;20025;-65
2022/04/10 04:00:19;;;;;;;3.45;1.05;;;1.40;99.90;;;;;;5079018;28;20020;-64
2022/04/10 04:02:45;;;;;;;2.20;1.30;;;1.40;99.90;;;;;;5080948;28;20098;-65
2022/04/10 04:05:11;;;;;;;2.42;1.38;;;1.40;99.90;;;;;;5079393;28;20564;-64
2022/04/10 04:07:37;;;;;;;4.60;2.03;;;1.50;99.90;;;;;;5075205;28;20024;-64
2022/04/10 04:10:04;;;;;;;3.78;2.28;;;1.50;99.90;;;;;;5080219;28;20067;-64
2022/04/10 04:12:30;;;;;;;3.47;1.63;;;1.30;99.90;;;;;;5087246;28;20018;-64
2022/04/10 04:14:56;;;;;;;5.28;2.35;;;1.40;99.90;;;;;;5078662;28;20091;-64
2022/04/10 04:17:22;;;;;;;5.07;2.05;;;1.40;99.90;;;;;;5077166;28;20075;-65
2022/04/10 04:19:50;;;;;;;7.13;2.60;;;1.30;99.90;;;;;;5065312;28;20017;-65
2022/04/10 04:22:16;;;;;;;2.85;1.60;;;1.30;99.90;;;;;;5082257;28;20074;-64
2022/04/10 04:24:42;;;;;;;4.55;1.85;;;1.40;99.90;;;;;;5081529;28;20032;-64
2022/04/10 04:27:07;;;;;;;2.13;1.38;;;1.40;99.90;;;;;;5063820;28;20048;-63
2022/04/10 04:29:33;;;;;;;1.92;1.23;;;1.20;99.90;;;;;;5083811;28;20450;-64
2022/04/10 04:31:59;;;;;;;3.20;1.75;;;1.30;99.90;;;;;;5077312;28;20483;-65
2022/04/10 04:34:24;;;;;;;10.77;1.95;;;1.30;99.90;;;;;;5082045;28;20391;-65
2022/04/10 04:36:50;;;;;;;3.63;2.03;;;1.40;99.90;;;;;;5076927;28;20022;-65
2022/04/10 04:39:15;;;;;;;2.80;1.80;;;1.40;99.90;;;;;;5079134;28;20074;-64
2022/04/10 04:41:41;;;;;;;3.10;1.30;;;1.30;99.90;;;;;;5082829;28;20039;-65
2022/04/10 04:44:07;;;;;;;4.00;1.42;;;1.20;99.90;;;;;;5076236;28;20428;-65
2022/04/10 04:46:32;;;;;;;5.20;3.20;;;1.20;99.90;;;;;;5085616;28;20063;-65
2022/04/10 04:48:58;;;;;;;6.97;2.78;;;1.40;99.90;;;;;;5081809;28;20460;-65
2022/04/10 04:51:24;;;;;;;5.90;1.90;;;1.40;99.90;;;;;;5076864;28;20028;-65
2022/04/10 04:53:49;;;;;;;10.10;2.53;;;1.30;99.90;;;;;;5081124;28;20035;-65
2022/04/10 04:56:15;;;;;;;6.53;2.45;;;1.30;99.90;;;;;;5084767;28;20120;-64
2022/04/10 04:58:42;;;;;;;9.73;1.50;;;1.30;99.90;;;;;;5075712;28;20435;-64
2022/04/10 05:01:08;;;;;;;4.82;1.65;;;1.40;99.90;;;;;;5082439;28;20086;-64
2022/04/10 05:03:34;;;;;;;3.33;1.45;;;1.30;99.90;;;;;;5078657;28;20028;-65
2022/04/10 05:06:00;;;;;;;6.60;1.65;;;1.40;99.90;;;;;;5065781;28;20137;-64
2022/04/10 05:08:25;;;;;;;8.10;2.22;;;1.40;99.90;;;;;;5082719;28;20036;-63
2022/04/10 05:10:51;;;;;;;3.47;1.77;;;1.40;99.90;;;;;;5082597;28;20062;-65
2022/04/10 05:13:17;;;;;;;6.18;2.83;;;1.50;99.90;;;;;;5091865;28;20026;-64
2022/04/10 05:15:42;;;;;;;5.28;2.10;;;1.50;99.90;;;;;;5085170;28;20077;-64
2022/04/10 05:18:08;;;;;;;5.35;2.47;;;1.50;99.90;;;;;;5085829;28;20089;-64
2022/04/10 05:20:34;;;;;;;4.22;1.88;;;1.50;99.90;;;;;;5083403;28;20046;-64
2022/04/10 05:22:59;;;;;;;4.53;1.85;;;1.40;99.90;;;;;;5079555;28;20079;-64
2022/04/10 05:25:25;;;;;;;4.45;1.92;;;1.50;99.90;;;;;;5069960;28;20376;-64
2022/04/10 05:27:51;;;;;;;2.13;1.52;;;1.60;99.90;;;;;;5081555;28;20407;-65
2022/04/10 05:30:16;;;;;;;4.88;2.33;;;1.70;99.90;;;;;;5071227;28;20097;-64
2022/04/10 05:32:43;;;;;;;3.63;1.63;;;1.70;99.90;;;;;;5085123;28;20035;-64
2022/04/10 05:35:12;;;;;;;2.92;1.98;;;1.80;99.90;;;;;;5079566;28;20025;-65
2022/04/10 05:37:38;;;;;;;5.35;2.90;;;2.00;99.90;;;;;;5064466;28;20028;-64
2022/04/10 05:40:04;;;;;;;9.63;1.50;;;2.10;99.90;;;;;;5087353;28;20406;-64
2022/04/10 05:42:30;;;;;;;14.07;2.30;;;2.10;99.90;;;;;;5079514;28;20472;-65
2022/04/10 05:45:03;;;;;;;5.55;2.08;;;2.10;99.90;;;;;;5081929;28;20129;-65
2022/04/10 05:47:29;;;;;;;27.33;2.58;;;2.10;99.90;;;;;;5080639;28;20086;-65
2022/04/10 05:49:54;;;;;;;7.22;1.98;;;2.10;99.90;;;;;;5085099;28;20476;-65
2022/04/10 05:52:20;;;;;;;2.83;1.80;;;2.10;99.90;;;;;;5080004;28;20099;-64
2022/04/10 05:54:46;;;;;;;4.95;1.83;;;2.20;99.90;;;;;;5080621;28;20051;-65
2022/04/10 05:57:11;;;;;;;19.15;1.55;;;2.30;99.90;;;;;;5080931;28;20020;-65
2022/04/10 05:59:37;;;;;;;13.68;2.75;;;2.50;99.90;;;;;;5061087;28;20025;-65
2022/04/10 06:02:03;;;;;;;1.95;1.27;;;2.60;99.90;;;;;;5085943;28;20085;-65
2022/04/10 06:04:28;;;;;;;2.58;1.45;;;2.60;99.90;;;;;;5087111;28;20522;-65
2022/04/10 06:06:54;;;;;;;3.90;1.60;;;2.70;99.90;;;;;;5077634;28;20048;-65
2022/04/10 06:09:19;;;;;;;2.95;1.50;;;2.80;99.90;;;;;;5086396;28;20053;-65
2022/04/10 06:11:45;;;;;;;4.45;1.60;;;3.00;99.90;;;;;;5081589;28;20361;-64
2022/04/10 06:14:10;;;;;;;2.60;1.63;;;3.10;99.90;;;;;;5087291;28;20020;-64
2022/04/10 06:16:36;;;;;;;9.35;2.17;;;3.20;99.90;;;;;;5083459;28;20402;-64
2022/04/10 06:19:02;;;;;;;3.53;1.92;;;3.20;99.90;;;;;;5085571;28;20085;-64
2022/04/10 06:21:28;;;;;;;6.07;3.30;;;3.30;99.90;;;;;;5084657;28;20032;-64
2022/04/10 06:23:54;;;;;;;3.60;1.50;;;3.30;99.90;;;;;;5079101;28;20016;-64
2022/04/10 06:26:20;;;;;;;12.57;1.85;;;3.40;99.90;;;;;;5078092;28;20046;-64
2022/04/10 06:28:45;;;;;;;4.55;1.70;;;3.50;99.90;;;;;;5080768;28;20384;-64
2022/04/10 06:31:11;;;;;;;3.28;1.75;;;3.60;99.90;;;;;;5081732;28;20030;-64
2022/04/10 06:33:37;;;;;;;3.70;2.05;;;3.60;99.90;;;;;;5085253;28;20043;-64
2022/04/10 06:36:03;;;;;;;2.35;1.23;;;3.70;99.90;;;;;;5080993;28;20021;-64
2022/04/10 06:38:28;;;;;;;5.47;2.08;;;3.80;99.90;;;;;;5080265;28;20081;-65
2022/04/10 06:40:54;;;;;;;7.65;2.40;;;3.90;99.90;;;;;;5084107;28;20016;-65
2022/04/10 06:43:20;;;;;;;2.50;1.45;;;4.00;99.90;;;;;;5085067;28;21060;-65
2022/04/10 06:45:47;;;;;;;6.13;2.80;;;4.00;99.90;;;;;;5063911;28;20025;-65
2022/04/10 06:48:12;;;;;;;3.30;1.48;;;4.10;99.90;;;;;;5085192;28;20110;-65
2022/04/10 06:50:38;;;;;;;6.55;1.85;;;4.20;99.90;;;;;;5086875;28;20063;-64
2022/04/10 06:53:04;;;;;;;4.75;1.52;;;4.30;99.90;;;;;;5079216;28;20021;-64
2022/04/10 06:55:31;;;;;;;4.00;1.90;;;4.40;99.90;;;;;;5081870;28;20013;-65
2022/04/10 06:57:57;;;;;;;5.38;2.22;;;4.40;99.90;;;;;;5077807;28;20025;-65
2022/04/10 07:00:22;;;;;;;5.78;1.92;;;4.40;99.90;;;;;;5083021;28;20024;-65
2022/04/10 07:02:48;;;;;;;7.47;2.08;;;4.60;99.90;;;;;;5081403;28;20028;-65
2022/04/10 07:05:14;;;;;;;4.43;2.17;;;4.80;99.90;;;;;;5064206;28;20426;-65
2022/04/10 07:07:40;;;;;;;6.15;2.00;;;4.80;99.90;;;;;;5080727;28;20025;-65
2022/04/10 07:10:05;;;;;;;6.60;2.22;;;4.70;99.90;;;;;;5077499;28;20033;-65
2022/04/10 07:12:31;;;;;;;1.38;1.08;;;4.80;99.90;;;;;;5083502;28;20028;-65
2022/04/10 07:15:01;;;;;;;3.20;1.65;;;4.80;99.90;;;;;;5074912;28;20024;-65
2022/04/10 07:17:27;;;;;;;7.50;2.40;;;4.80;99.90;;;;;;5074312;28;20028;-65
2022/04/10 07:19:52;;;;;;;7.15;2.05;;;5.00;99.90;;;;;;5071875;28;20029;-65
2022/04/10 07:25:03;;;;;;;11.38;2.17;;;5.20;99.90;;;;;;5084793;28;20391;-65
2022/04/10 07:27:29;;;;;;;3.17;1.58;;;5.20;99.90;;;;;;5083068;28;20040;-65
2022/04/10 07:29:55;;;;;;;8.25;2.92;;;5.30;99.90;;;;;;5058275;28;20028;-65
2022/04/10 07:32:20;;;;;;;9.48;3.25;;;5.30;99.90;;;;;;5080595;28;20107;-65
2022/04/10 07:34:46;;;;;;;2.45;1.58;;;5.40;99.90;;;;;;5059881;28;20029;-65
2022/04/10 07:37:11;;;;;;;8.55;2.28;;;5.50;99.90;;;;;;5082936;28;20013;-64
2022/04/10 07:39:37;;;;;;;6.43;2.83;;;5.50;99.90;;;;;;5083458;28;20028;-64
2022/04/10 07:42:03;;;;;;;4.90;1.98;;;5.50;99.90;;;;;;5081857;28;20472;-64
2022/04/10 07:44:29;;;;;;;4.60;1.50;;;5.60;99.90;;;;;;5081274;28;20031;-65
2022/04/10 07:49:39;;;;;;;7.28;2.25;;;5.90;99.90;;;;;;5076045;28;20158;-65
2022/04/10 07:52:05;;;;;;;4.03;1.83;;;5.80;99.90;;;;;;5080534;28;20111;-65
2022/04/10 07:54:30;;;;;;;2.42;1.33;;;6.00;99.90;;;;;;5080387;28;20112;-65
2022/04/10 07:56:56;;;;;;;15.50;2.75;;;6.10;99.90;;;;;;5084354;28;20445;-64
2022/04/10 07:59:23;;;;;;;5.30;1.63;;;6.20;99.90;;;;;;5081836;28;20380;-65
2022/04/10 08:01:49;;;;;;;5.35;2.10;;;6.10;99.90;;;;;;5083104;28;20109;-65
2022/04/10 08:04:15;;;;;;;5.47;1.85;;;6.20;99.90;;;;;;5081247;28;20115;-65
2022/04/10 08:06:40;;;;;;;9.63;2.28;;;6.30;99.90;;;;;;5076641;28;20108;-65
2022/04/10 08:09:06;;;;;;;1.88;1.20;;;6.30;99.90;;;;;;5081690;28;20042;-65
2022/04/10 08:11:32;;;;;;;2.90;1.45;;;6.40;99.90;;;;;;5075854;28;20086;-64
2022/04/10 08:13:57;;;;;;;6.88;1.05;;;6.30;99.90;;;;;;5083594;28;20032;-65
2022/04/10 08:16:23;;;;;;;3.03;2.33;;;6.40;99.90;;;;;;5080532;28;21093;-65
2022/04/10 08:18:49;;;;;;;6.20;2.13;;;6.60;99.90;;;;;;5083265;28;20077;-64
2022/04/10 08:21:14;;;;;;;5.32;1.90;;;6.80;99.90;;;;;;5081620;28;20050;-64
2022/04/10 08:23:40;;;;;;;4.95;1.30;;;7.10;99.90;;;;;;5056677;28;20048;-65
2022/04/10 08:26:05;;;;;;;12.20;1.88;;;7.30;99.90;;;;;;5081160;28;20032;-66
2022/04/10 08:28:32;;;;;;;14.60;1.90;;;7.30;99.90;;;;;;5079626;28;20044;-65
2022/04/10 08:30:58;;;;;;;3.28;1.40;;;7.20;99.90;;;;;;5075694;28;20013;-65
2022/04/10 08:33:23;;;;;;;1.88;1.10;;;7.10;99.90;;;;;;5076437;28;20074;-65
2022/04/10 08:35:49;;;;;;;1.98;0.80;;;7.00;99.90;;;;;;5077588;28;20427;-64
2022/04/10 08:38:15;;;;;;;2.53;1.48;;;7.30;99.90;;;;;;5079680;28;20016;-65
2022/04/10 08:40:41;;;;;;;3.05;1.65;;;8.20;99.90;;;;;;5073864;28;20040;-65
2022/04/10 08:43:10;;;;;;;8.25;1.88;;;8.10;99.90;;;;;;5076320;28;20165;-65
2022/04/10 08:45:37;;;;;;;2.42;1.17;;;8.70;99.90;;;;;;5077656;28;20037;-66
2022/04/10 08:48:04;;;;;;;3.40;1.40;;;9.40;99.90;;;;;;5083345;28;20082;-63
2022/04/10 08:50:30;;;;;;;4.53;1.08;;;10.10;99.90;;;;;;5057886;28;20023;-66
2022/04/10 08:52:58;;;;;;;3.22;1.40;;;10.40;99.90;;;;;;5065041;28;20043;-66
2022/04/10 08:55:24;;;;;;;2.97;1.25;;;9.20;99.90;;;;;;5062125;28;20024;-66
2022/04/10 08:57:50;;;;;;;4.88;1.20;;;9.40;99.90;;;;;;5067788;28;20038;-65
2022/04/10 09:00:18;;;;;;;4.30;1.75;;;9.10;99.90;;;;;;5075919;28;20016;-66
2022/04/10 09:02:48;;;;;;;2.15;0.98;;;8.90;99.90;;;;;;5075237;28;20104;-65
2022/04/10 09:05:19;;;;;;;2.88;1.30;;;9.30;99.90;;;;;;5083257;28;20028;-63
2022/04/10 09:08:07;;;;;;;6.28;1.30;;;8.90;99.90;;;;;;5076816;28;20369;-63
2022/04/10 09:10:58;;;;;;;1.85;1.08;;;8.80;99.90;;;;;;5081548;28;20029;-65
2022/04/10 09:13:35;;;;;;;2.53;1.52;;;8.80;99.90;;;;;;5081748;28;20604;-65
2022/04/10 09:16:07;;;;;;;5.55;1.20;;;8.40;99.90;;;;;;5062815;28;20393;-64
2022/04/10 09:18:58;;;;;;;3.53;1.48;;;8.30;99.90;;;;;;5083065;28;20028;-63
2022/04/10 09:21:32;;;;;;;13.88;1.40;;;8.20;99.90;;;;;;5079310;28;20078;-63
2022/04/10 09:24:11;;;;;;;2.10;1.10;;;8.30;99.90;;;;;;5079881;28;20034;-63
2022/04/10 09:26:48;;;;;;;1.75;1.02;;;8.40;99.90;;;;;;5082426;28;20040;-63
2022/04/10 09:29:15;;;;;;;2.10;1.02;;;8.20;99.90;;;;;;5071718;28;20411;-64
2022/04/10 09:31:42;;;;;;;6.20;2.35;;;8.00;99.90;;;;;;5071563;28;20069;-64
2022/04/10 09:34:09;;;;;;;2.20;1.05;;;7.60;99.90;;;;;;5078012;28;20043;-64
2022/04/10 09:36:43;;;;;;;3.63;1.27;;;7.70;99.90;;;;;;5074148;28;20032;-64
2022/04/10 09:39:10;;;;;;;1.67;1.00;;;7.70;99.90;;;;;;5070223;28;20059;-64
2022/04/10 09:41:36;;;;;;;3.05;1.55;;;7.60;99.90;;;;;;5069873;28;20461;-64
2022/04/10 09:44:22;;;;;;;1.02;0.73;;;7.30;99.90;;;;;;5058936;28;20107;-64
2022/04/10 09:47:02;;;;;;;5.05;1.88;;;7.20;99.90;;;;;;5070964;28;20025;-65
2022/04/10 09:49:48;;;;;;;4.97;1.55;;;7.20;99.90;;;;;;5067526;28;20025;-64
2022/04/10 09:52:17;;;;;;;5.00;1.80;;;7.10;99.90;;;;;;5069040;28;20070;-64
2022/04/10 09:54:47;;;;;;;0.95;0.77;;;6.80;99.90;;;;;;5060173;28;20060;-64
2022/04/10 09:57:14;;;;;;;3.53;1.50;;;6.50;99.90;;;;;;5070927;28;20094;-64
2022/04/10 09:59:48;;;;;;;3.17;1.17;;;6.20;99.90;;;;;;5058372;28;20035;-64
2022/04/10 10:02:16;;;;;;;3.03;1.33;;;6.00;99.90;;;;;;5074984;28;20618;-64
2022/04/10 10:04:43;;;;;;;3.80;1.77;;;5.90;99.90;;;;;;5078167;28;20036;-64
2022/04/10 10:07:20;;;;;;;2.05;1.40;;;6.00;99.90;;;;;;5072873;28;20488;-64
2022/04/10 10:09:47;;;;;;;3.95;1.42;;;6.00;99.90;;;;;;5081098;28;20035;-64
2022/04/10 10:12:14;;;;;;;3.55;1.63;;;6.10;99.90;;;;;;5078051;28;20191;-64
2022/04/10 10:14:41;;;;;;;3.47;1.60;;;6.30;99.90;;;;;;5079772;28;20111;-64
2022/04/10 10:17:08;;;;;;;4.53;1.77;;;6.50;99.90;;;;;;5074657;28;20166;-64
2022/04/10 10:19:36;;;;;;;5.07;1.17;;;6.60;99.90;;;;;;5078266;28;20035;-65
2022/04/10 10:22:03;;;;;;;3.38;1.23;;;6.70;99.90;;;;;;5080157;28;20054;-65
2022/04/10 10:24:54;;;;;;;3.42;1.40;;;7.00;99.90;;;;;;5076690;28;20036;-64
2022/04/10 10:27:28;;;;;;;;;;;7.90;99.90;;;;;;5075160;28;20044;-63
2022/04/10 10:30:08;;;;;;;2.55;1.00;;;8.90;99.90;;;;;;5077291;28;20004;-62
2022/04/10 10:32:43;;;;;;;6.68;1.63;;;9.70;99.90;;;;;;5076601;28;20028;-62
2022/04/10 10:35:27;;;;;;;1.85;0.93;;;10.60;99.90;;;;;;5075742;28;20033;-63
2022/04/10 10:37:53;;;;;;;3.22;1.30;;;11.50;99.90;;;;;;5079377;28;20016;-63
2022/04/10 10:40:21;;;;;;;2.88;1.38;;;12.30;99.90;;;;;;5075704;28;20054;-62
2022/04/10 10:42:49;;;;;;;3.15;1.38;;;11.70;99.90;;;;;;5071766;28;20051;-63
2022/04/10 10:45:36;;;;;;;4.15;1.48;;;11.00;99.90;;;;;;5082637;28;20028;-63
2022/04/10 10:48:21;;;;;;;5.35;2.10;;;10.10;99.90;;;;;;5077026;28;20024;-62
2022/04/10 10:50:46;;;;;;;4.10;1.63;;;9.20;99.90;;;;;;5083418;28;20028;-65
2022/04/10 10:53:13;;;;;;;1.85;0.98;;;8.80;99.90;;;;;;5086280;28;20380;-63
2022/04/10 10:55:46;;;;;;;3.60;1.52;;;8.30;99.90;;;;;;5081079;28;20020;-63
2022/04/10 10:58:15;;;;;;;1.38;0.70;;;9.70;99.90;;;;;;5075849;28;20048;-63
2022/04/10 11:00:40;;;;;;;2.33;1.10;;;10.90;99.90;;;;;;5083611;28;20391;-61
2022/04/10 11:03:09;;;;;;;1.02;0.70;;;11.80;99.20;;;;;;5076545;28;20021;-61
2022/04/10 11:05:36;;;;;;;2.38;1.10;;;12.50;97.90;;;;;;5079431;28;20020;-61
2022/04/10 11:08:07;;;;;;;4.93;1.20;;;11.10;96.80;;;;;;5059929;28;20217;-61
2022/04/10 11:10:37;;;;;;;0.65;0.65;;;10.30;96.20;;;;;;5082909;28;20464;-63
2022/04/10 11:13:08;;;;;;;1.42;0.80;;;10.60;97.00;;;;;;5081433;28;21014;-64
2022/04/10 11:15:47;;;;;;;1.98;1.00;;;11.40;95.40;;;;;;5081993;28;20066;-62
2022/04/10 11:18:35;;;;;;;3.35;1.02;;;12.10;94.00;;;;;;5084005;28;20048;-61
2022/04/10 11:21:14;;;;;;;0.77;0.77;;;12.70;93.00;;;;;;5084585;28;20024;-62
2022/04/10 11:23:47;;;;;;;1.08;0.75;;;13.70;91.70;;;;;;5076962;28;20024;-62
2022/04/10 11:26:18;;;;;;;4.55;1.05;;;13.90;91.00;;;;;;5086912;28;20115;-62
2022/04/10 11:28:56;;;;;;;1.75;0.90;;;13.80;89.30;;;;;;5080786;28;20035;-62
2022/04/10 11:31:34;;;;;;;1.73;0.90;;;12.30;89.30;;;;;;5076420;28;20043;-62
2022/04/10 11:34:22;;;;;;;2.80;1.13;;;10.60;92.60;;;;;;5078584;28;20063;-62
2022/04/10 11:36:48;;;;;;;0.98;0.70;;;10.10;93.60;;;;;;5079147;28;20498;-62
2022/04/10 11:39:14;;;;;;;1.45;0.80;;;9.60;94.10;;;;;;5075928;28;20025;-62
2022/04/10 11:41:41;;;;;;;1.13;0.80;;;10.50;92.60;;;;;;5067204;28;20032;-62
2022/04/10 11:44:08;;;;;;;3.75;1.00;;;11.40;92.60;;;;;;5073854;28;20055;-62
2022/04/10 11:46:34;;;;;;;5.93;0.95;;;11.90;87.90;;;;;;5086989;28;20028;-62
2022/04/10 11:49:01;;;;;;;2.45;0.95;;;12.60;88.40;;;;;;5078306;28;20103;-63
2022/04/10 11:51:26;;;;;;;1.65;0.80;;;12.30;90.10;;;;;;5086073;28;20099;-62
2022/04/10 11:53:55;;;;;;;1.25;0.70;;;12.10;90.70;;;;;;5078362;28;20747;-62
2022/04/10 11:56:21;;;;;;;3.45;1.48;;;11.80;90.90;;;;;;5080837;28;20020;-63
2022/04/10 11:58:47;;;;;;;2.65;0.93;;;10.70;90.80;;;;;;5076007;28;20567;-63
2022/04/10 12:01:14;;;;;;;2.55;0.90;;;10.00;92.00;;;;;;5075824;28;20016;-64
2022/04/10 12:03:41;;;;;;;2.53;1.08;;;10.10;92.80;;;;;;5075713;28;20526;-63
2022/04/10 12:06:09;;;;;;;0.80;0.68;;;10.20;92.90;;;;;;5075542;28;20025;-63
2022/04/10 12:08:35;;;;;;;1.02;0.80;;;10.90;92.10;;;;;;5062946;28;20119;-63
2022/04/10 12:11:01;;;;;;;1.77;0.90;;;10.90;92.00;;;;;;5078842;28;20012;-62
2022/04/10 12:13:37;;;;;;;3.00;1.17;;;10.50;92.80;;;;;;5078148;28;20497;-64
2022/04/10 12:16:18;;;;;;;2.22;0.90;;;10.10;92.50;;;;;;5085420;28;20023;-64
2022/04/10 12:18:51;;;;;;;4.13;1.25;;;10.20;92.30;;;;;;5075291;28;20406;-62
2022/04/10 12:21:17;;;;;;;1.58;0.95;;;11.70;91.40;;;;;;5076092;28;20426;-64
2022/04/10 12:23:45;;;;;;;3.50;1.38;;;11.90;90.30;;;;;;5078226;28;20017;-64
2022/04/10 12:26:11;;;;;;;1.50;0.82;;;12.50;90.30;;;;;;5078208;28;20142;-64
2022/04/10 12:28:39;;;;;;;1.58;0.80;;;12.80;89.10;;;;;;5074389;28;20103;-62
2022/04/10 12:31:05;;;;;;;2.22;1.00;;;13.80;85.00;;;;;;5077664;28;20151;-64
2022/04/10 12:33:33;;;;;;;1.35;0.70;;;13.40;83.80;;;;;;5073231;28;20048;-64
2022/04/10 12:35:58;;;;;;;1.63;0.80;;;14.70;83.30;;;;;;5079939;28;20025;-64
2022/04/10 12:38:29;;;;;;;2.38;0.90;;;13.00;82.90;;;;;;5078989;28;20471;-64
2022/04/10 12:41:04;;;;;;;;;;;12.50;81.90;;;;;;5079059;28;20032;-64
2022/04/10 12:43:30;;;;;;;1.00;0.68;;;14.20;82.10;;;;;;5077738;28;19908;-64
2022/04/10 12:46:08;;;;;;;0.93;0.70;;;15.50;77.20;;;;;;5078183;28;20107;-64
2022/04/10 12:48:34;;;;;;;1.02;0.60;;;15.00;77.80;;;;;;5076671;28;20149;-64
2022/04/10 12:51:08;;;;;;;1.73;0.70;;;13.70;78.20;;;;;;5079152;28;20031;-64
2022/04/10 12:53:34;;;;;;;1.75;0.77;;;13.50;80.10;;;;;;5078204;28;20559;-63
2022/04/10 12:56:00;;;;;;;1.33;0.70;;;13.60;79.30;;;;;;5076066;28;20468;-64
2022/04/10 12:58:29;;;;;;;1.60;0.82;;;13.10;80.20;;;;;;5053581;28;20029;-64
2022/04/10 13:00:55;;;;;;;0.70;0.70;;;13.40;78.90;;;;;;5073650;28;20066;-64
2022/04/10 13:03:21;;;;;;;2.00;0.73;;;14.20;78.40;;;;;;5077633;28;20033;-64